createdAt,value
2023-04-16T00:00:05.672Z,9.19
2023-04-16T00:01:07.379Z,9.21
2023-04-16T00:02:09.110Z,9.22
2023-04-16T00:03:11.020Z,9.21
2023-04-16T00:04:17.937Z,9.21
2023-04-16T00:05:19.640Z,9.18
2023-04-16T00:06:21.485Z,9.14
2023-04-16T00:07:25.184Z,9.15
2023-04-16T00:08:27.592Z,9.14
2023-04-16T00:09:29.384Z,9.17
2023-04-16T00:10:38.451Z,9.13
2023-04-16T00:11:40.067Z,9.15
2023-04-16T00:12:41.600Z,9.17
2023-04-16T00:13:43.891Z,9.16
2023-04-16T00:14:45.409Z,9.13
2023-04-16T00:15:47.236Z,9.15
2023-04-16T00:16:51.598Z,9.18
2023-04-16T00:17:53.918Z,9.21
2023-04-16T00:18:55.673Z,9.20
2023-04-16T00:20:00.673Z,9.16
2023-04-16T00:21:02.243Z,9.18
2023-04-16T00:22:04.290Z,9.17
2023-04-16T00:23:09.133Z,9.13
2023-04-16T00:24:10.823Z,9.19
2023-04-16T00:25:13.933Z,9.19
2023-04-16T00:26:16.257Z,9.19
2023-04-16T00:27:22.732Z,9.20
2023-04-16T00:28:33.260Z,9.16
2023-04-16T00:29:34.920Z,9.17
2023-04-16T00:30:36.735Z,9.18
2023-04-16T00:31:38.548Z,9.19
2023-04-16T00:32:40.541Z,9.19
2023-04-16T00:33:42.856Z,9.22
2023-04-16T00:34:44.476Z,9.23
2023-04-16T00:35:47.463Z,9.23
2023-04-16T00:36:48.925Z,9.23
2023-04-16T00:37:50.494Z,9.21
2023-04-16T00:38:52.343Z,9.23
2023-04-16T00:39:53.839Z,9.16
2023-04-16T00:40:58.288Z,9.18
2023-04-16T00:41:59.731Z,9.15
2023-04-16T00:43:01.245Z,9.21
2023-04-16T00:44:03.022Z,9.23
2023-04-16T00:45:05.693Z,9.24
2023-04-16T00:46:08.628Z,9.27
2023-04-16T00:47:10.415Z,9.26
2023-04-16T00:48:12.078Z,9.21
2023-04-16T00:49:13.988Z,9.21
2023-04-16T00:50:15.812Z,9.21
2023-04-16T00:51:20.098Z,9.20
2023-04-16T00:52:21.771Z,9.18
2023-04-16T00:53:23.563Z,9.18
2023-04-16T00:54:26.318Z,9.19
2023-04-16T00:55:28.283Z,9.21
2023-04-16T00:56:30.800Z,9.15
2023-04-16T00:57:32.416Z,9.18
2023-04-16T00:58:35.299Z,9.20
2023-04-16T00:59:37.307Z,9.22
2023-04-16T01:00:38.866Z,9.19
2023-04-16T01:01:40.486Z,9.23
2023-04-16T01:02:42.763Z,9.23
2023-04-16T01:03:46.872Z,9.24
2023-04-16T01:04:48.538Z,9.23
2023-04-16T01:05:50.702Z,9.25
2023-04-16T01:06:52.461Z,9.26
2023-04-16T01:07:53.967Z,9.21
2023-04-16T01:08:55.945Z,9.20
2023-04-16T01:09:57.648Z,9.20
2023-04-16T01:10:59.490Z,9.18
2023-04-16T01:12:02.175Z,9.20
2023-04-16T01:13:04.015Z,9.20
2023-04-16T01:15:09.647Z,9.19
2023-04-16T01:16:12.745Z,9.18
2023-04-16T01:17:14.433Z,9.16
2023-04-16T01:18:17.116Z,9.15
2023-04-16T01:19:18.649Z,9.19
2023-04-16T01:20:20.140Z,9.17
2023-04-16T01:21:21.760Z,9.18
2023-04-16T01:22:23.304Z,9.18
2023-04-16T01:23:25.235Z,9.21
2023-04-16T01:24:26.794Z,9.23
2023-04-16T01:25:28.241Z,9.23
2023-04-16T01:26:29.666Z,9.24
2023-04-16T01:27:31.279Z,9.23
2023-04-16T01:28:33.256Z,9.24
2023-04-16T01:29:35.095Z,9.24
2023-04-16T01:30:36.783Z,9.20
2023-04-16T01:31:38.304Z,9.22
2023-04-16T01:32:39.802Z,9.21
2023-04-16T01:33:41.795Z,9.21
2023-04-16T01:34:43.415Z,9.21
2023-04-16T01:35:45.058Z,9.23
2023-04-16T01:36:46.801Z,9.26
2023-04-16T01:37:50.526Z,9.20
2023-04-16T01:38:51.997Z,9.21
2023-04-16T01:39:53.677Z,9.22
2023-04-16T01:40:59.492Z,9.22
2023-04-16T01:42:01.364Z,9.24
2023-04-16T01:43:03.054Z,9.25
2023-04-16T01:44:05.118Z,9.23
2023-04-16T01:45:07.200Z,9.25
2023-04-16T01:46:31.040Z,9.27
2023-04-16T01:47:32.787Z,9.24
2023-04-16T01:48:34.249Z,9.26
2023-04-16T01:49:36.543Z,9.22
2023-04-16T01:50:38.231Z,9.21
2023-04-16T01:51:39.647Z,9.21
2023-04-16T01:52:41.090Z,9.21
2023-04-16T01:53:42.564Z,9.23
2023-04-16T01:54:44.222Z,9.22
2023-04-16T01:55:45.655Z,9.22
2023-04-16T01:56:47.141Z,9.24
2023-04-16T01:57:48.712Z,9.26
2023-04-16T01:58:50.436Z,9.24
2023-04-16T01:59:52.050Z,9.28
2023-04-16T02:00:53.869Z,9.28
2023-04-16T02:01:55.824Z,9.24
2023-04-16T02:02:57.686Z,9.26
2023-04-16T02:03:59.574Z,9.21
2023-04-16T02:05:01.808Z,9.20
2023-04-16T02:06:03.407Z,9.23
2023-04-16T02:07:05.888Z,9.23
2023-04-16T02:08:07.704Z,9.24
2023-04-16T02:09:09.768Z,9.27
2023-04-16T02:10:11.598Z,9.26
2023-04-16T02:11:13.519Z,9.26
2023-04-16T02:12:15.455Z,9.28
2023-04-16T02:13:17.245Z,9.27
2023-04-16T02:14:18.821Z,9.24
2023-04-16T02:15:20.471Z,9.21
2023-04-16T02:16:22.111Z,9.22
2023-04-16T02:17:23.652Z,9.24
2023-04-16T02:18:25.318Z,9.24
2023-04-16T02:19:27.035Z,9.19
2023-04-16T02:20:29.203Z,9.18
2023-04-16T02:21:31.894Z,9.18
2023-04-16T02:22:36.497Z,9.20
2023-04-16T02:23:41.049Z,9.21
2023-04-16T02:24:42.625Z,9.20
2023-04-16T02:25:46.568Z,9.22
2023-04-16T02:26:48.200Z,9.24
2023-04-16T02:27:49.797Z,9.26
2023-04-16T02:28:51.937Z,9.23
2023-04-16T02:29:53.503Z,9.23
2023-04-16T02:30:55.151Z,9.21
2023-04-16T02:31:56.837Z,9.20
2023-04-16T02:32:58.518Z,9.22
2023-04-16T02:34:00.342Z,9.22
2023-04-16T02:35:04.114Z,9.23
2023-04-16T02:36:06.048Z,9.24
2023-04-16T02:37:07.509Z,9.26
2023-04-16T02:38:09.260Z,9.26
2023-04-16T02:39:11.229Z,9.28
2023-04-16T02:40:12.959Z,9.27
2023-04-16T02:41:14.650Z,9.25
2023-04-16T02:42:16.553Z,9.23
2023-04-16T02:43:18.082Z,9.22
2023-04-16T02:44:19.584Z,9.21
2023-04-16T02:45:21.574Z,9.22
2023-04-16T02:46:23.283Z,9.24
2023-04-16T02:47:24.878Z,9.26
2023-04-16T02:48:26.407Z,9.24
2023-04-16T02:49:28.038Z,9.26
2023-04-16T02:50:29.588Z,9.28
2023-04-16T02:51:31.074Z,9.25
2023-04-16T02:52:33.651Z,9.27
2023-04-16T02:53:35.149Z,9.27
2023-04-16T02:54:36.669Z,9.25
2023-04-16T02:55:38.277Z,9.27
2023-04-16T02:56:39.995Z,9.24
2023-04-16T02:57:42.495Z,9.26
2023-04-16T02:58:44.138Z,9.26
2023-04-16T02:59:45.893Z,9.25
2023-04-16T03:00:47.508Z,9.25
2023-04-16T03:01:49.313Z,9.23
2023-04-16T03:02:51.167Z,9.22
2023-04-16T03:03:52.838Z,9.21
2023-04-16T03:04:54.675Z,9.19
2023-04-16T03:05:56.300Z,9.22
2023-04-16T03:06:57.766Z,9.22
2023-04-16T03:07:59.248Z,9.21
2023-04-16T03:09:00.853Z,9.21
2023-04-16T03:10:02.821Z,9.23
2023-04-16T03:11:04.426Z,9.18
2023-04-16T03:12:06.011Z,9.22
2023-04-16T03:13:07.817Z,9.16
2023-04-16T03:14:09.403Z,9.17
2023-04-16T03:15:11.234Z,9.21
2023-04-16T03:16:12.919Z,9.19
2023-04-16T03:17:14.470Z,9.21
2023-04-16T03:18:16.491Z,9.23
2023-04-16T03:19:18.136Z,9.23
2023-04-16T03:20:19.993Z,9.26
2023-04-16T03:21:21.518Z,9.27
2023-04-16T03:22:23.343Z,9.26
2023-04-16T03:23:24.835Z,9.25
2023-04-16T03:24:26.454Z,9.27
2023-04-16T03:25:27.890Z,9.24
2023-04-16T03:26:29.620Z,9.24
2023-04-16T03:27:31.109Z,9.26
2023-04-16T03:28:32.570Z,9.29
2023-04-16T03:29:37.685Z,9.30
2023-04-16T03:30:39.284Z,9.31
2023-04-16T03:31:41.780Z,9.32
2023-04-16T03:32:43.438Z,9.32
2023-04-16T03:33:44.949Z,9.31
2023-04-16T03:34:46.538Z,9.31
2023-04-16T03:35:55.517Z,9.29
2023-04-16T03:36:57.025Z,9.28
2023-04-16T03:37:58.632Z,9.29
2023-04-16T03:39:00.151Z,9.30
2023-04-16T03:40:02.193Z,9.30
2023-04-16T03:41:03.810Z,9.29
2023-04-16T03:42:08.158Z,9.30
2023-04-16T03:43:09.731Z,9.28
2023-04-16T03:44:11.219Z,9.25
2023-04-16T03:45:12.753Z,9.26
2023-04-16T03:46:14.257Z,9.30
2023-04-16T03:47:15.916Z,9.31
2023-04-16T03:48:17.993Z,9.31
2023-04-16T03:49:19.489Z,9.27
2023-04-16T03:50:21.127Z,9.28
2023-04-16T03:51:22.667Z,9.29
2023-04-16T03:52:24.243Z,9.28
2023-04-16T03:53:25.769Z,9.28
2023-04-16T03:54:27.396Z,9.29
2023-04-16T03:55:29.165Z,9.29
2023-04-16T03:56:30.767Z,9.28
2023-04-16T03:57:32.345Z,9.30
2023-04-16T03:58:33.907Z,9.30
2023-04-16T03:59:35.410Z,9.32
2023-04-16T04:00:36.914Z,9.32
2023-04-16T04:01:38.536Z,9.33
2023-04-16T04:02:40.385Z,9.32
2023-04-16T04:03:42.454Z,9.32
2023-04-16T04:04:44.245Z,9.30
2023-04-16T04:05:46.345Z,9.31
2023-04-16T04:06:47.827Z,9.31
2023-04-16T04:07:49.578Z,9.30
2023-04-16T04:08:51.353Z,9.31
2023-04-16T04:09:52.831Z,9.30
2023-04-16T04:10:54.595Z,9.32
2023-04-16T04:11:57.527Z,9.30
2023-04-16T04:12:58.997Z,9.30
2023-04-16T04:14:00.554Z,9.29
2023-04-16T04:15:02.179Z,9.28
2023-04-16T04:16:04.933Z,9.28
2023-04-16T04:25:28.709Z,9.21
2023-04-16T04:26:33.993Z,9.24
2023-04-16T04:27:35.677Z,9.24
2023-04-16T04:28:38.216Z,9.24
2023-04-16T04:29:39.681Z,9.23
2023-04-16T04:30:41.481Z,9.24
2023-04-16T04:31:43.168Z,9.26
2023-04-16T04:32:45.069Z,9.26
2023-04-16T04:33:46.661Z,9.30
2023-04-16T04:34:48.311Z,9.32
2023-04-16T04:35:49.947Z,9.28
2023-04-16T04:36:51.518Z,9.29
2023-04-16T04:37:53.123Z,9.30
2023-04-16T04:38:54.679Z,9.31
2023-04-16T04:39:56.330Z,9.27
2023-04-16T04:40:58.226Z,9.28
2023-04-16T04:41:59.927Z,9.24
2023-04-16T04:43:01.483Z,9.26
2023-04-16T04:44:03.259Z,9.25
2023-04-16T04:45:05.521Z,9.23
2023-04-16T04:46:07.402Z,9.26
2023-04-16T04:47:09.048Z,9.27
2023-04-16T04:48:12.845Z,9.26
2023-04-16T04:49:14.377Z,9.28
2023-04-16T04:50:17.252Z,9.29
2023-04-16T04:52:54.959Z,9.33
2023-04-16T04:54:02.983Z,9.34
2023-04-16T04:55:07.869Z,9.34
2023-04-16T04:56:12.659Z,9.37
2023-04-16T04:57:14.665Z,9.37
2023-04-16T04:58:16.419Z,9.36
2023-04-16T04:59:18.142Z,9.37
2023-04-16T05:00:19.822Z,9.38
2023-04-16T05:01:21.485Z,9.37
2023-04-16T05:02:23.195Z,9.37
2023-04-16T05:03:24.864Z,9.34
2023-04-16T05:04:29.570Z,9.30
2023-04-16T05:05:31.264Z,9.29
2023-04-16T05:06:33.277Z,9.31
2023-04-16T05:07:34.904Z,9.35
2023-04-16T05:08:36.437Z,9.37
2023-04-16T05:09:37.957Z,9.37
2023-04-16T05:10:39.584Z,9.38
2023-04-16T05:11:42.357Z,9.36
2023-04-16T05:12:44.010Z,9.36
2023-04-16T05:13:45.711Z,9.34
2023-04-16T05:14:50.035Z,9.37
2023-04-16T05:15:51.561Z,9.38
2023-04-16T05:16:54.081Z,9.41
2023-04-16T05:17:58.031Z,9.40
2023-04-16T05:18:59.875Z,9.41
2023-04-16T05:20:03.683Z,9.43
2023-04-16T05:21:05.790Z,9.42
2023-04-16T05:22:08.067Z,9.41
2023-04-16T05:24:26.394Z,9.42
2023-04-16T05:25:28.177Z,9.42
2023-04-16T05:26:29.728Z,9.42
2023-04-16T05:27:31.334Z,9.42
2023-04-16T05:28:34.150Z,9.45
2023-04-16T05:29:35.882Z,9.44
2023-04-16T05:30:37.676Z,9.43
2023-04-16T05:31:39.496Z,9.40
2023-04-16T05:32:41.421Z,9.41
2023-04-16T05:33:43.496Z,9.37
2023-04-16T05:34:46.152Z,9.37
2023-04-16T05:35:50.568Z,9.41
2023-04-16T05:36:52.255Z,9.42
2023-04-16T05:37:55.056Z,9.45
2023-04-16T05:38:56.839Z,9.47
2023-04-16T05:39:58.760Z,9.47
2023-04-16T05:41:02.574Z,9.50
2023-04-16T05:42:04.258Z,9.48
2023-04-16T05:43:05.849Z,9.48
2023-04-16T05:44:07.380Z,9.48
2023-04-16T05:45:09.588Z,9.43
2023-04-16T05:46:11.378Z,9.41
2023-04-16T05:47:12.925Z,9.41
2023-04-16T05:48:14.639Z,9.42
2023-04-16T05:49:18.776Z,9.46
2023-04-16T05:50:20.680Z,9.49
2023-04-16T05:51:24.745Z,9.52
2023-04-16T05:52:26.420Z,9.52
2023-04-16T05:53:28.029Z,9.54
2023-04-16T05:54:29.746Z,9.54
2023-04-16T05:55:31.625Z,9.53
2023-04-16T05:56:33.286Z,9.50
2023-04-16T05:57:34.782Z,9.48
2023-04-16T05:58:36.289Z,9.46
2023-04-16T05:59:38.208Z,9.46
2023-04-16T06:00:40.372Z,9.51
2023-04-16T06:01:41.877Z,9.52
2023-04-16T06:02:43.538Z,9.51
2023-04-16T06:03:46.885Z,9.51
2023-04-16T06:04:50.031Z,9.52
2023-04-16T06:05:51.759Z,9.53
2023-04-16T06:06:53.410Z,9.58
2023-04-16T06:07:56.014Z,9.58
2023-04-16T06:08:57.490Z,9.61
2023-04-16T06:09:58.929Z,9.63
2023-04-16T06:11:00.574Z,9.68
2023-04-16T06:12:02.209Z,9.69
2023-04-16T06:13:03.790Z,9.70
2023-04-16T06:14:05.530Z,9.68
2023-04-16T06:15:09.784Z,9.62
2023-04-16T06:16:11.437Z,9.62
2023-04-16T06:17:12.990Z,9.63
2023-04-16T06:18:14.585Z,9.62
2023-04-16T06:19:16.496Z,9.63
2023-04-16T06:20:17.978Z,9.64
2023-04-16T06:21:19.535Z,9.68
2023-04-16T06:22:21.114Z,9.70
2023-04-16T06:23:22.671Z,9.69
2023-04-16T06:24:24.448Z,9.70
2023-04-16T06:25:26.013Z,9.70
2023-04-16T06:26:28.937Z,9.68
2023-04-16T06:27:31.246Z,9.67
2023-04-16T06:28:32.995Z,9.67
2023-04-16T06:29:41.209Z,9.67
2023-04-16T06:30:44.614Z,9.69
2023-04-16T06:31:46.564Z,9.71
2023-04-16T06:32:49.670Z,9.75
2023-04-16T06:33:51.234Z,9.79
2023-04-16T06:34:52.758Z,9.76
2023-04-16T06:35:54.255Z,9.74
2023-04-16T06:36:55.995Z,9.71
2023-04-16T06:37:57.481Z,9.75
2023-04-16T06:38:59.307Z,9.74
2023-04-16T06:40:00.917Z,9.73
2023-04-16T06:41:02.584Z,9.74
2023-04-16T06:42:04.417Z,9.77
2023-04-16T06:43:06.316Z,9.77
2023-04-16T06:44:07.853Z,9.77
2023-04-16T06:45:10.176Z,9.73
2023-04-16T06:46:11.791Z,9.74
2023-04-16T06:47:13.292Z,9.74
2023-04-16T06:48:14.810Z,9.70
2023-04-16T06:49:16.264Z,9.65
2023-04-16T06:50:18.123Z,9.72
2023-04-16T06:51:20.884Z,9.75
2023-04-16T06:52:22.331Z,9.80
2023-04-16T06:53:24.055Z,9.79
2023-04-16T06:54:25.515Z,9.76
2023-04-16T06:55:27.088Z,9.79
2023-04-16T06:56:28.615Z,9.81
2023-04-16T06:57:30.202Z,9.80
2023-04-16T06:58:31.988Z,9.80
2023-04-16T06:59:33.465Z,9.77
2023-04-16T07:00:35.102Z,9.77
2023-04-16T07:01:36.916Z,9.77
2023-04-16T07:02:49.422Z,9.82
2023-04-16T07:10:54.166Z,9.79
2023-04-16T07:11:56.154Z,9.82
2023-04-16T07:13:07.208Z,9.84
2023-04-16T07:14:11.789Z,9.86
2023-04-16T07:15:13.466Z,9.88
2023-04-16T07:16:15.301Z,9.89
2023-04-16T07:17:16.897Z,9.91
2023-04-16T07:18:21.661Z,9.94
2023-04-16T07:19:23.622Z,9.97
2023-04-16T07:20:25.341Z,9.93
2023-04-16T07:29:08.397Z,9.98
2023-04-16T07:30:10.794Z,10.04
2023-04-16T07:31:29.630Z,10.05
2023-04-16T07:32:31.280Z,10.07
2023-04-16T07:33:32.886Z,10.11
2023-04-16T07:34:34.789Z,10.14
2023-04-16T07:35:39.500Z,10.13
2023-04-16T07:36:43.726Z,10.17
2023-04-16T07:37:45.449Z,10.23
2023-04-16T07:38:47.025Z,10.24
2023-04-16T07:39:48.657Z,10.25
2023-04-16T07:40:52.982Z,10.32
2023-04-16T07:41:57.467Z,10.34
2023-04-16T07:43:00.532Z,10.32
2023-04-16T07:44:04.651Z,10.33
2023-04-16T07:45:07.112Z,10.28
2023-04-16T07:46:08.694Z,10.31
2023-04-16T07:47:10.234Z,10.33
2023-04-16T07:48:11.822Z,10.35
2023-04-16T07:49:13.415Z,10.40
2023-04-16T07:50:16.369Z,10.45
2023-04-16T07:51:17.807Z,10.45
2023-04-16T07:52:19.667Z,10.45
2023-04-16T07:53:21.602Z,10.47
2023-04-16T07:54:23.203Z,10.48
2023-04-16T07:55:24.780Z,10.52
2023-04-16T07:56:26.349Z,10.56
2023-04-16T07:57:27.831Z,10.57
2023-04-16T07:58:29.435Z,10.59
2023-04-16T07:59:31.247Z,10.64
2023-04-16T08:00:32.748Z,10.66
2023-04-16T08:01:34.219Z,10.68
2023-04-16T08:02:36.032Z,10.70
2023-04-16T08:03:37.926Z,10.70
2023-04-16T08:04:39.898Z,10.72
2023-04-16T08:05:41.621Z,10.74
2023-04-16T08:06:43.072Z,10.72
2023-04-16T08:07:44.523Z,10.71
2023-04-16T08:08:46.161Z,10.73
2023-04-16T08:09:49.631Z,10.79
2023-04-16T08:10:55.790Z,10.83
2023-04-16T08:11:57.568Z,10.86
2023-04-16T08:13:02.009Z,10.85
2023-04-16T08:14:03.842Z,10.85
2023-04-16T08:15:06.939Z,10.89
2023-04-16T08:16:08.549Z,10.84
2023-04-16T08:17:10.296Z,10.81
2023-04-16T08:18:16.311Z,10.83
2023-04-16T08:19:37.028Z,10.84
2023-04-16T08:20:39.366Z,10.85
2023-04-16T08:21:41.238Z,10.83
2023-04-16T08:22:42.779Z,10.74
2023-04-16T08:23:44.218Z,10.70
2023-04-16T08:24:46.515Z,10.72
2023-04-16T08:25:52.501Z,10.73
2023-04-16T08:26:57.003Z,10.69
2023-04-16T08:28:01.882Z,10.65
2023-04-16T08:29:03.397Z,10.67
2023-04-16T08:30:05.611Z,10.67
2023-04-16T08:31:07.252Z,10.73
2023-04-16T08:32:10.392Z,10.75
2023-04-16T08:33:14.185Z,10.79
2023-04-16T08:34:15.998Z,10.81
2023-04-16T08:35:17.685Z,10.87
2023-04-16T08:36:19.221Z,10.90
2023-04-16T08:37:21.001Z,10.92
2023-04-16T08:38:22.619Z,10.95
2023-04-16T08:39:24.325Z,10.95
2023-04-16T08:40:28.641Z,11.02
2023-04-16T08:41:34.818Z,11.04
2023-04-16T08:42:58.376Z,11.08
2023-04-16T08:44:07.775Z,11.11
2023-04-16T08:45:17.756Z,11.20
2023-04-16T08:46:23.625Z,11.22
2023-04-16T08:47:29.190Z,11.27
2023-04-16T08:48:34.152Z,11.30
2023-04-16T08:49:36.644Z,11.34
2023-04-16T08:50:39.111Z,11.37
2023-04-16T08:51:43.371Z,11.40
2023-04-16T08:52:59.775Z,11.42
2023-04-16T08:54:09.272Z,11.45
2023-04-16T08:55:14.538Z,11.42
2023-04-16T08:56:20.085Z,11.37
2023-04-16T08:57:23.817Z,11.38
2023-04-16T08:58:29.638Z,11.37
2023-04-16T08:59:31.349Z,11.41
2023-04-16T09:00:34.735Z,11.44
2023-04-16T09:01:38.462Z,11.48
2023-04-16T09:02:40.928Z,11.47
2023-04-16T09:03:44.489Z,11.50
2023-04-16T09:04:47.173Z,11.50
2023-04-16T09:05:50.505Z,11.51
2023-04-16T09:06:54.041Z,11.54
2023-04-16T09:07:55.683Z,11.59
2023-04-16T09:08:59.446Z,11.62
2023-04-16T09:10:04.243Z,11.65
2023-04-16T09:11:06.276Z,11.65
2023-04-16T09:12:55.364Z,11.69
2023-04-16T09:13:58.389Z,11.69
2023-04-16T09:15:06.794Z,11.74
2023-04-16T09:16:09.674Z,11.80
2023-04-16T09:17:12.763Z,11.84
2023-04-16T09:18:19.211Z,11.86
2023-04-16T09:19:21.273Z,11.88
2023-04-16T09:20:25.790Z,11.90
2023-04-16T09:21:28.212Z,11.91
2023-04-16T09:22:30.262Z,11.94
2023-04-16T09:23:46.171Z,11.98
2023-04-16T09:24:59.372Z,11.99
2023-04-16T09:26:05.460Z,11.98
2023-04-16T09:27:18.216Z,11.97
2023-04-16T09:29:12.420Z,11.91
2023-04-16T09:30:29.544Z,11.92
2023-04-16T09:31:34.498Z,11.91
2023-04-16T09:32:37.342Z,11.88
2023-04-16T09:34:11.338Z,11.88
2023-04-16T09:35:14.706Z,11.87
2023-04-16T09:36:23.748Z,11.88
2023-04-16T09:37:29.562Z,11.88
2023-04-16T09:38:54.956Z,11.86
2023-04-16T09:39:59.649Z,11.88
2023-04-16T09:41:11.184Z,11.88
2023-04-16T09:42:14.260Z,11.89
2023-04-16T09:43:18.596Z,11.88
2023-04-16T09:44:35.114Z,11.87
2023-04-16T09:45:49.999Z,11.88
2023-04-16T09:46:55.549Z,11.86
2023-04-16T09:48:05.051Z,11.78
2023-04-16T09:49:11.053Z,11.81
2023-04-16T09:50:18.912Z,11.87
2023-04-16T09:51:21.286Z,11.92
2023-04-16T09:52:24.033Z,11.92
2023-04-16T09:53:36.354Z,12.00
2023-04-16T09:54:42.997Z,12.08
2023-04-16T09:55:46.414Z,12.09
2023-04-16T09:56:49.464Z,12.14
2023-04-16T09:58:00.545Z,12.10
2023-04-16T09:59:03.167Z,12.14
2023-04-16T10:00:10.280Z,12.18
2023-04-16T10:01:13.498Z,12.19
2023-04-16T10:02:17.392Z,12.22
2023-04-16T10:03:39.981Z,12.26
2023-04-16T10:04:49.601Z,12.30
2023-04-16T10:05:54.029Z,12.29
2023-04-16T10:07:08.912Z,12.33
2023-04-16T10:08:14.742Z,12.36
2023-04-16T10:09:19.554Z,12.41
2023-04-16T10:10:21.414Z,12.45
2023-04-16T10:11:23.425Z,12.53
2023-04-16T10:12:25.052Z,12.56
2023-04-16T10:13:31.570Z,12.52
2023-04-16T10:14:34.221Z,12.45
2023-04-16T10:15:36.404Z,12.38
2023-04-16T10:16:41.154Z,12.36
2023-04-16T10:17:43.328Z,12.39
2023-04-16T10:18:47.442Z,12.42
2023-04-16T10:19:50.598Z,12.44
2023-04-16T10:20:53.019Z,12.46
2023-04-16T10:21:55.667Z,12.38
2023-04-16T10:22:57.783Z,12.35
2023-04-16T10:24:00.828Z,12.40
2023-04-16T10:25:11.237Z,12.38
2023-04-16T10:26:14.978Z,12.32
2023-04-16T10:27:19.884Z,12.32
2023-04-16T10:28:22.068Z,12.20
2023-04-16T10:29:25.467Z,12.18
2023-04-16T10:30:29.872Z,12.18
2023-04-16T10:31:34.079Z,12.19
2023-04-16T10:32:36.967Z,12.21
2023-04-16T10:33:42.497Z,12.17
2023-04-16T10:34:44.237Z,12.16
2023-04-16T10:35:52.448Z,12.15
2023-04-16T10:37:02.727Z,12.13
2023-04-16T10:38:24.931Z,12.12
2023-04-16T10:39:29.610Z,12.12
2023-04-16T10:40:31.618Z,12.14
2023-04-16T10:41:36.426Z,12.15
2023-04-16T10:44:10.078Z,12.18
2023-04-16T10:45:11.656Z,12.20
2023-04-16T10:46:33.055Z,12.22
2023-04-16T10:47:40.348Z,12.23
2023-04-16T10:48:49.698Z,12.20
2023-04-16T10:49:52.654Z,12.20
2023-04-16T10:50:57.058Z,12.18
2023-04-16T10:52:00.659Z,12.11
2023-04-16T10:53:24.821Z,12.12
2023-04-16T10:54:28.861Z,12.15
2023-04-16T10:55:30.505Z,12.17
2023-04-16T10:56:33.277Z,12.16
2023-04-16T10:57:34.924Z,12.13
2023-04-16T10:58:36.967Z,12.12
2023-04-16T10:59:39.654Z,12.14
2023-04-16T11:00:51.268Z,12.10
2023-04-16T11:01:55.901Z,12.13
2023-04-16T11:02:57.685Z,12.12
2023-04-16T11:04:02.107Z,12.12
2023-04-16T11:05:03.953Z,12.09
2023-04-16T11:06:13.305Z,12.11
2023-04-16T11:07:18.222Z,12.14
2023-04-16T11:08:19.738Z,12.08
2023-04-16T11:09:57.755Z,12.10
2023-04-16T11:10:59.366Z,12.14
2023-04-16T11:12:02.054Z,12.16
2023-04-16T11:13:06.538Z,12.16
2023-04-16T11:14:10.957Z,12.17
2023-04-16T11:15:14.461Z,12.17
2023-04-16T11:16:17.130Z,12.11
2023-04-16T11:17:20.421Z,12.10
2023-04-16T11:18:22.040Z,12.10
2023-04-16T11:19:23.666Z,12.07
2023-04-16T11:20:26.982Z,12.01
2023-04-16T11:21:29.280Z,11.95
2023-04-16T11:22:31.506Z,11.95
2023-04-16T11:23:46.447Z,11.93
2023-04-16T11:24:53.401Z,11.90
2023-04-16T11:25:57.749Z,11.88
2023-04-16T11:27:03.070Z,11.83
2023-04-16T11:28:04.595Z,11.85
2023-04-16T11:29:14.658Z,11.84
2023-04-16T11:30:17.048Z,11.73
2023-04-16T11:31:18.736Z,11.75
2023-04-16T11:32:23.289Z,11.78
2023-04-16T11:33:25.180Z,11.82
2023-04-16T11:34:27.144Z,11.80
2023-04-16T11:35:28.807Z,11.82
2023-04-16T11:36:44.232Z,11.93
2023-04-16T11:37:49.053Z,11.92
2023-04-16T11:38:50.783Z,11.92
2023-04-16T11:39:53.365Z,11.96
2023-04-16T11:40:55.220Z,12.04
2023-04-16T11:41:56.850Z,12.10
2023-04-16T11:43:13.137Z,12.09
2023-04-16T11:44:28.003Z,12.05
2023-04-16T11:45:29.787Z,12.12
2023-04-16T11:46:40.806Z,12.22
2023-04-16T11:47:53.654Z,12.21
2023-04-16T11:48:57.891Z,12.25
2023-04-16T11:50:28.867Z,12.32
2023-04-16T11:51:30.451Z,12.36
2023-04-16T11:52:33.978Z,12.39
2023-04-16T11:53:59.797Z,12.45
2023-04-16T11:55:02.982Z,12.40
2023-04-16T11:56:08.826Z,12.37
2023-04-16T11:57:11.434Z,12.37
2023-04-16T11:58:13.688Z,12.37
2023-04-16T11:59:17.565Z,12.39
2023-04-16T12:00:23.751Z,12.39
2023-04-16T12:01:26.739Z,12.42
2023-04-16T12:02:35.104Z,12.45
2023-04-16T12:04:03.365Z,12.39
2023-04-16T12:05:05.704Z,12.38
2023-04-16T12:06:10.729Z,12.47
2023-04-16T12:07:14.998Z,12.47
2023-04-16T12:08:32.976Z,12.52
2023-04-16T12:09:40.659Z,12.52
2023-04-16T12:11:15.171Z,12.53
2023-04-16T12:12:31.924Z,12.56
2023-04-16T12:13:40.344Z,12.60
2023-04-16T12:14:51.019Z,12.64
2023-04-16T12:15:55.087Z,12.63
2023-04-16T12:17:21.568Z,12.62
2023-04-16T12:18:26.334Z,12.49
2023-04-16T12:19:28.257Z,12.49
2023-04-16T12:20:41.641Z,12.45
2023-04-16T12:21:48.014Z,12.45
2023-04-16T12:22:49.841Z,12.48
2023-04-16T12:23:53.925Z,12.49
2023-04-16T12:25:29.043Z,12.45
2023-04-16T12:28:51.491Z,12.61
2023-04-16T12:53:21.761Z,13.45
2023-04-16T12:54:44.819Z,13.44
2023-04-16T12:58:15.155Z,13.62
2023-04-16T12:59:36.465Z,13.70
2023-04-16T13:00:37.998Z,13.74
2023-04-16T13:01:42.598Z,13.71
2023-04-16T13:02:44.306Z,13.76
2023-04-16T13:03:46.725Z,13.84
2023-04-16T13:04:51.621Z,13.78
2023-04-16T13:05:56.979Z,13.76
2023-04-16T13:06:58.656Z,13.83
2023-04-16T13:08:00.574Z,13.85
2023-04-16T13:09:02.377Z,13.92
2023-04-16T13:10:04.149Z,13.99
2023-04-16T13:11:06.556Z,14.02
2023-04-16T13:12:08.214Z,14.14
2023-04-16T13:13:09.792Z,14.28
2023-04-16T13:14:11.457Z,14.38
2023-04-16T13:15:13.095Z,14.52
2023-04-16T13:16:14.572Z,14.65
2023-04-16T13:17:16.281Z,14.72
2023-04-16T13:18:17.938Z,14.78
2023-04-16T13:19:20.983Z,14.77
2023-04-16T13:20:24.399Z,14.81
2023-04-16T13:21:27.218Z,14.84
2023-04-16T13:22:28.862Z,14.78
2023-04-16T13:23:30.648Z,14.72
2023-04-16T13:24:32.361Z,14.64
2023-04-16T13:25:37.102Z,14.55
2023-04-16T13:26:38.676Z,14.56
2023-04-16T13:27:40.589Z,14.54
2023-04-16T13:28:42.040Z,14.46
2023-04-16T13:29:43.552Z,14.40
2023-04-16T13:30:46.697Z,14.35
2023-04-16T13:33:09.240Z,14.25
2023-04-16T13:34:11.146Z,14.17
2023-04-16T13:35:13.122Z,14.05
2023-04-16T13:36:14.763Z,13.97
2023-04-16T13:37:16.204Z,13.91
2023-04-16T13:38:17.958Z,13.82
2023-04-16T13:39:21.964Z,13.69
2023-04-16T13:40:23.727Z,13.64
2023-04-16T13:41:28.554Z,13.61
2023-04-16T13:42:30.160Z,13.56
2023-04-16T13:43:32.734Z,13.56
2023-04-16T13:44:34.275Z,13.55
2023-04-16T13:45:38.032Z,13.50
2023-04-16T13:46:39.500Z,13.49
2023-04-16T13:47:44.390Z,13.43
2023-04-16T13:48:46.530Z,13.32
2023-04-16T13:49:49.181Z,13.35
2023-04-16T13:50:50.856Z,13.32
2023-04-16T13:51:52.446Z,13.28
2023-04-16T13:52:53.907Z,13.25
2023-04-16T13:53:56.592Z,13.21
2023-04-16T13:54:59.982Z,13.19
2023-04-16T13:56:03.735Z,13.20
2023-04-16T13:57:05.404Z,13.19
2023-04-16T13:58:07.272Z,13.21
2023-04-16T13:59:15.960Z,13.21
2023-04-16T14:00:19.316Z,13.24
2023-04-16T14:01:23.898Z,13.24
2023-04-16T14:02:26.770Z,13.21
2023-04-16T14:03:28.364Z,13.19
2023-04-16T14:04:30.362Z,13.25
2023-04-16T14:05:31.868Z,13.22
2023-04-16T14:06:34.181Z,13.22
2023-04-16T14:07:35.674Z,13.24
2023-04-16T14:08:38.555Z,13.25
2023-04-16T14:09:40.074Z,13.32
2023-04-16T14:10:43.590Z,13.35
2023-04-16T14:11:45.579Z,13.40
2023-04-16T14:12:47.105Z,13.42
2023-04-16T14:13:49.020Z,13.45
2023-04-16T14:14:50.872Z,13.46
2023-04-16T14:15:55.755Z,13.46
2023-04-16T14:17:00.239Z,13.53
2023-04-16T14:18:02.716Z,13.61
2023-04-16T14:19:04.295Z,13.65
2023-04-16T14:20:06.950Z,13.65
2023-04-16T14:21:09.154Z,13.67
2023-04-16T14:22:10.801Z,13.65
2023-04-16T14:23:12.607Z,13.69
2023-04-16T14:24:14.048Z,13.72
2023-04-16T14:25:15.708Z,13.77
2023-04-16T14:26:17.212Z,13.80
2023-04-16T14:27:18.746Z,13.82
2023-04-16T14:28:21.987Z,13.91
2023-04-16T14:29:23.772Z,13.89
2023-04-16T14:30:26.131Z,13.91
2023-04-16T14:31:57.564Z,13.93
2023-04-16T14:33:00.235Z,13.98
2023-04-16T14:35:23.583Z,13.98
2023-04-16T14:36:27.129Z,14.03
2023-04-16T14:37:29.390Z,14.11
2023-04-16T14:38:32.524Z,14.17
2023-04-16T14:39:34.377Z,14.25
2023-04-16T14:40:38.930Z,14.31
2023-04-16T14:41:41.199Z,14.37
2023-04-16T14:42:42.764Z,14.45
2023-04-16T14:43:44.691Z,14.50
2023-04-16T14:44:46.262Z,14.54
2023-04-16T14:45:48.012Z,14.59
2023-04-16T14:46:49.460Z,14.65
2023-04-16T14:47:51.634Z,14.69
2023-04-16T14:48:54.076Z,14.68
2023-04-16T14:49:58.171Z,14.65
2023-04-16T14:54:03.358Z,14.64
2023-04-16T14:55:10.900Z,14.65
2023-04-16T14:56:13.582Z,14.62